Manila Express — VRCX7 — position and weather

sailwx.info

Track history (hours):
 
Tides and Currents Weather Stations Pressure Air Temp Water Temp Dewpoint Dewpoint Depression Visibility Wind Speed Wind Dir Waves Ship Positions

Manila Express

Last reported at 2015-Feb-28 22:32 UTC. Time now 2015-Mar-02 11:16 UTC.
Position S 34°52' E 151°02'.

Length 260 m; draft 10.3 m.

Type: Ship (hazmat cat A). MMSI: 477830800.

Date/timePositionNaut miles runAvg speedWind from/ knotsBaromVisibWave heightAir tempDewpointWater temp
2015-Feb-28 22:32S 34°52' E 151°02'2018.0
2015-Feb-28 21:24S 35°12' E 150°56'1517.7
2015-Feb-28 20:32S 35°27' E 150°51'2018.0
2015-Feb-28 19:26S 35°46' E 150°45'2218.0
2015-Feb-28 18:14S 36°07' E 150°38'1218.1
2015-Feb-28 17:33S 36°18' E 150°33'5618.4
2015-Feb-28 14:32S 37°12' E 150°12'1818.5
2015-Feb-28 13:33S 37°29' E 150°05'1717.6
2015-Feb-28 12:34S 37°45' E 149°55'1818.0
2015-Feb-28 11:33S 37°56' E 149°38'1818.4
2015-Feb-28 10:34S 38°08' E 149°20'1717.4
2015-Feb-28 09:34S 38°19' E 149°03'1817.9
2015-Feb-28 08:33S 38°30' E 148°45'1818.0
2015-Feb-28 07:33S 38°41' E 148°26'1818.0
2015-Feb-28 06:33S 38°50' E 148°07'1818.2
2015-Feb-28 05:33S 38°55' E 147°44'1818.3
2015-Feb-28 04:34S 39°01' E 147°22'1818.3
2015-Feb-28 03:33S 39°07' E 146°60'1818.4
2015-Feb-28 02:33S 39°16' E 146°39'1818.1
2015-Feb-28 01:33S 39°18' E 146°15'1817.8
2015-Feb-28 00:34S 39°12' E 145°54'1818.5
2015-Feb-27 23:34S 39°02' E 145°34'1918.6
2015-Feb-27 22:33S 38°52' E 145°13'1918.6
2015-Feb-27 21:34S 38°42' E 144°54'2018.4
2015-Feb-27 20:28S 38°28' E 144°35'1210.7
2015-Feb-27 19:22S 38°18' E 144°44'2613.2
2015-Feb-27 17:22S 37°53' E 144°56'5 1.0
2015-Feb-27 12:30S 37°49' E 144°55'78 2.4
2015-Feb-26 03:23S 38°50' E 143°53'1214.7
2015-Feb-26 02:33S 38°58' E 143°41'1312.9
2015-Feb-26 01:32S 38°59' E 143°24'1313.4
2015-Feb-26 00:33S 38°57' E 143°08'1413.6
2015-Feb-25 23:33S 38°55' E 142°50'1413.7
2015-Feb-25 22:33S 38°53' E 142°33'1413.8
2015-Feb-25 21:33S 38°50' E 142°15'1413.8
2015-Feb-25 20:33S 38°48' E 141°58'1413.7
2015-Feb-25 19:32S 38°46' E 141°41'1613.7
2015-Feb-25 18:21S 38°43' E 141°20'1113.7
2015-Feb-25 17:33S 38°41' E 141°06'1413.7
2015-Feb-25 16:33S 38°39' E 140°49'1513.8
2015-Feb-25 15:27S 38°36' E 140°30'1913.9
2015-Feb-25 14:06S 38°33' E 140°06'  
2015-Feb-21 15:08S 32°22' E 114°58'3312.3
2015-Feb-21 12:25S 31°55' E 115°22'1214.3
2015-Feb-21 11:33S 31°57' E 115°37'9 9.3
2015-Feb-21 10:33S 32°03' E 115°45'0 0.1
2015-Feb-21 09:32S 32°03' E 115°45'0 0.0
2015-Feb-21 08:32S 32°03' E 115°45'0 0.0
2015-Feb-21 07:32S 32°03' E 115°45'0 0.0
2015-Feb-21 06:32S 32°03' E 115°45'0 0.0
2015-Feb-21 05:32S 32°03' E 115°45'0 0.0
2015-Feb-21 04:32S 32°03' E 115°45'0 0.0
2015-Feb-21 03:32S 32°03' E 115°45'0 0.0
2015-Feb-21 02:32S 32°03' E 115°45'0 0.0
2015-Feb-21 01:32S 32°03' E 115°45'0 0.0
2015-Feb-21 00:32S 32°03' E 115°45'0 0.0
2015-Feb-20 23:32S 32°03' E 115°45'0 0.0
2015-Feb-20 22:32S 32°03' E 115°45'0 0.0
2015-Feb-20 21:32S 32°03' E 115°45'0 0.0
2015-Feb-20 20:32S 32°03' E 115°45'0 0.0
2015-Feb-20 19:32S 32°03' E 115°45'0 0.0
2015-Feb-20 18:34S 32°03' E 115°45'4 3.6
2015-Feb-20 17:33S 31°60' E 115°42'6 6.5
2015-Feb-20 16:33S 31°55' E 115°37'1212.3
2015-Feb-20 15:33S 31°48' E 115°25'26316.9
2015-Feb-20 00:00S 29°36' E 111°00'10721.5 040 / 181016.310.8 2.022.519.423.1
2015-Feb-19 19:00S 28°36' E 109°18'21816.8 140 / 221015.3 5.4 23.019.921.0
2015-Feb-19 06:00S 26°42' E 105°48'10918.2 110 / 201014.1 5.4 1.526.024.624.0
2015-Feb-19 00:00S 25°42' E 104°06'   120 / 101014.410.8 0.526.025.324.8
Track history (hours):
 
Tides and Currents Weather Stations Pressure Air Temp Water Temp Dewpoint Dewpoint Depression Visibility Wind Speed Wind Dir Waves Ship Positions

Manila Express

Last reported at 2015-Feb-28 22:32 UTC. Time now 2015-Mar-02 11:16 UTC.
Position S 34°52' E 151°02'.

Length 260 m; draft 10.3 m.

Type: Ship (hazmat cat A). MMSI: 477830800.

Date/timePositionNaut miles runAvg speedWind from/ knotsBaromVisibWave heightAir tempDewpointWater temp
2015-Feb-28 22:32S 34°52' E 151°02'2018.0
2015-Feb-28 21:24S 35°12' E 150°56'1517.7
2015-Feb-28 20:32S 35°27' E 150°51'2018.0
2015-Feb-28 19:26S 35°46' E 150°45'2218.0
2015-Feb-28 18:14S 36°07' E 150°38'1218.1
2015-Feb-28 17:33S 36°18' E 150°33'5618.4
2015-Feb-28 14:32S 37°12' E 150°12'1818.5
2015-Feb-28 13:33S 37°29' E 150°05'1717.6
2015-Feb-28 12:34S 37°45' E 149°55'1818.0
2015-Feb-28 11:33S 37°56' E 149°38'1818.4
2015-Feb-28 10:34S 38°08' E 149°20'1717.4
2015-Feb-28 09:34S 38°19' E 149°03'1817.9
2015-Feb-28 08:33S 38°30' E 148°45'1818.0
2015-Feb-28 07:33S 38°41' E 148°26'1818.0
2015-Feb-28 06:33S 38°50' E 148°07'1818.2
2015-Feb-28 05:33S 38°55' E 147°44'1818.3
2015-Feb-28 04:34S 39°01' E 147°22'1818.3
2015-Feb-28 03:33S 39°07' E 146°60'1818.4
2015-Feb-28 02:33S 39°16' E 146°39'1818.1
2015-Feb-28 01:33S 39°18' E 146°15'1817.8
2015-Feb-28 00:34S 39°12' E 145°54'1818.5
2015-Feb-27 23:34S 39°02' E 145°34'1918.6
2015-Feb-27 22:33S 38°52' E 145°13'1918.6
2015-Feb-27 21:34S 38°42' E 144°54'2018.4
2015-Feb-27 20:28S 38°28' E 144°35'1210.7
2015-Feb-27 19:22S 38°18' E 144°44'2613.2
2015-Feb-27 17:22S 37°53' E 144°56'5 1.0
2015-Feb-27 12:30S 37°49' E 144°55'78 2.4
2015-Feb-26 03:23S 38°50' E 143°53'1214.7
2015-Feb-26 02:33S 38°58' E 143°41'1312.9
2015-Feb-26 01:32S 38°59' E 143°24'1313.4
2015-Feb-26 00:33S 38°57' E 143°08'1413.6
2015-Feb-25 23:33S 38°55' E 142°50'1413.7
2015-Feb-25 22:33S 38°53' E 142°33'1413.8
2015-Feb-25 21:33S 38°50' E 142°15'1413.8
2015-Feb-25 20:33S 38°48' E 141°58'1413.7
2015-Feb-25 19:32S 38°46' E 141°41'1613.7
2015-Feb-25 18:21S 38°43' E 141°20'1113.7
2015-Feb-25 17:33S 38°41' E 141°06'1413.7
2015-Feb-25 16:33S 38°39' E 140°49'1513.8
2015-Feb-25 15:27S 38°36' E 140°30'1913.9
2015-Feb-25 14:06S 38°33' E 140°06'  
2015-Feb-21 15:08S 32°22' E 114°58'3312.3
2015-Feb-21 12:25S 31°55' E 115°22'1214.3
2015-Feb-21 11:33S 31°57' E 115°37'9 9.3
2015-Feb-21 10:33S 32°03' E 115°45'0 0.1
2015-Feb-21 09:32S 32°03' E 115°45'0 0.0
2015-Feb-21 08:32S 32°03' E 115°45'0 0.0
2015-Feb-21 07:32S 32°03' E 115°45'0 0.0
2015-Feb-21 06:32S 32°03' E 115°45'0 0.0
2015-Feb-21 05:32S 32°03' E 115°45'0 0.0
2015-Feb-21 04:32S 32°03' E 115°45'0 0.0
2015-Feb-21 03:32S 32°03' E 115°45'0 0.0
2015-Feb-21 02:32S 32°03' E 115°45'0 0.0
2015-Feb-21 01:32S 32°03' E 115°45'0 0.0
2015-Feb-21 00:32S 32°03' E 115°45'0 0.0
2015-Feb-20 23:32S 32°03' E 115°45'0 0.0
2015-Feb-20 22:32S 32°03' E 115°45'0 0.0
2015-Feb-20 21:32S 32°03' E 115°45'0 0.0
2015-Feb-20 20:32S 32°03' E 115°45'0 0.0
2015-Feb-20 19:32S 32°03' E 115°45'0 0.0
2015-Feb-20 18:34S 32°03' E 115°45'4 3.6
2015-Feb-20 17:33S 31°60' E 115°42'6 6.5
2015-Feb-20 16:33S 31°55' E 115°37'1212.3
2015-Feb-20 15:33S 31°48' E 115°25'26316.9
2015-Feb-20 00:00S 29°36' E 111°00'10721.5 040 / 181016.310.8 2.022.519.423.1
2015-Feb-19 19:00S 28°36' E 109°18'21816.8 140 / 221015.3 5.4 23.019.921.0
2015-Feb-19 06:00S 26°42' E 105°48'10918.2 110 / 201014.1 5.4 1.526.024.624.0
2015-Feb-19 00:00S 25°42' E 104°06'   120 / 101014.410.8 0.526.025.324.8

Dump ship's entire track history